sensor_id;sensor_type;location;lat;lon;timestamp;temperature;humidity
2945;DHT22;1482;51.398;7.128;2022-08-21T00:01:39;19.40;1.00
2945;DHT22;1482;51.398;7.128;2022-08-21T00:04:06;19.30;1.00
2945;DHT22;1482;51.398;7.128;2022-08-21T00:06:33;19.30;1.00
2945;DHT22;1482;51.398;7.128;2022-08-21T00:09:00;19.30;1.00
2945;DHT22;1482;51.398;7.128;2022-08-21T00:11:26;19.30;1.00
2945;DHT22;1482;51.398;7.128;2022-08-21T00:13:53;19.20;1.00
2945;DHT22;1482;51.398;7.128;2022-08-21T00:16:19;19.20;1.00
2945;DHT22;1482;51.398;7.128;2022-08-21T00:18:44;19.20;1.00
2945;DHT22;1482;51.398;7.128;2022-08-21T00:21:12;19.20;1.00
2945;DHT22;1482;51.398;7.128;2022-08-21T00:23:38;19.10;1.00
2945;DHT22;1482;51.398;7.128;2022-08-21T00:26:04;19.10;1.00
2945;DHT22;1482;51.398;7.128;2022-08-21T00:28:29;19.10;1.00
2945;DHT22;1482;51.398;7.128;2022-08-21T00:30:56;19.00;1.00
2945;DHT22;1482;51.398;7.128;2022-08-21T00:33:22;19.10;1.00
2945;DHT22;1482;51.398;7.128;2022-08-21T00:35:48;19.00;1.00
2945;DHT22;1482;51.398;7.128;2022-08-21T00:38:13;18.90;1.00
2945;DHT22;1482;51.398;7.128;2022-08-21T00:40:50;18.90;1.00
2945;DHT22;1482;51.398;7.128;2022-08-21T00:43:20;18.90;1.00
2945;DHT22;1482;51.398;7.128;2022-08-21T00:45:47;18.80;1.00
2945;DHT22;1482;51.398;7.128;2022-08-21T00:48:13;18.80;1.00
2945;DHT22;1482;51.398;7.128;2022-08-21T00:50:44;18.70;1.00
2945;DHT22;1482;51.398;7.128;2022-08-21T00:53:11;18.70;1.00
2945;DHT22;1482;51.398;7.128;2022-08-21T00:55:38;18.70;1.00
2945;DHT22;1482;51.398;7.128;2022-08-21T00:58:07;18.60;1.00
2945;DHT22;1482;51.398;7.128;2022-08-21T01:00:35;18.60;1.00
2945;DHT22;1482;51.398;7.128;2022-08-21T01:03:06;18.60;1.00
2945;DHT22;1482;51.398;7.128;2022-08-21T01:05:32;18.50;1.00
2945;DHT22;1482;51.398;7.128;2022-08-21T01:07:58;18.50;1.00
2945;DHT22;1482;51.398;7.128;2022-08-21T01:10:24;18.50;1.00
2945;DHT22;1482;51.398;7.128;2022-08-21T01:12:55;18.40;1.00
2945;DHT22;1482;51.398;7.128;2022-08-21T01:15:23;18.40;1.00
2945;DHT22;1482;51.398;7.128;2022-08-21T01:17:50;18.40;1.00
2945;DHT22;1482;51.398;7.128;2022-08-21T01:20:16;18.40;1.00
2945;DHT22;1482;51.398;7.128;2022-08-21T01:22:42;18.40;1.00
2945;DHT22;1482;51.398;7.128;2022-08-21T01:25:12;18.40;1.00
2945;DHT22;1482;51.398;7.128;2022-08-21T01:27:38;18.50;1.00
2945;DHT22;1482;51.398;7.128;2022-08-21T01:30:25;18.40;1.00
2945;DHT22;1482;51.398;7.128;2022-08-21T01:32:53;18.40;1.00
2945;DHT22;1482;51.398;7.128;2022-08-21T01:35:20;18.40;1.00
2945;DHT22;1482;51.398;7.128;2022-08-21T01:37:46;18.40;1.00
2945;DHT22;1482;51.398;7.128;2022-08-21T01:40:14;18.50;1.00
2945;DHT22;1482;51.398;7.128;2022-08-21T01:42:42;18.40;1.00
2945;DHT22;1482;51.398;7.128;2022-08-21T01:45:08;18.40;1.00
2945;DHT22;1482;51.398;7.128;2022-08-21T01:47:34;18.40;1.00
2945;DHT22;1482;51.398;7.128;2022-08-21T01:50:02;18.30;1.00
2945;DHT22;1482;51.398;7.128;2022-08-21T01:52:28;18.30;1.00
2945;DHT22;1482;51.398;7.128;2022-08-21T01:54:54;18.30;1.00
2945;DHT22;1482;51.398;7.128;2022-08-21T01:57:20;18.20;1.00
2945;DHT22;1482;51.398;7.128;2022-08-21T01:59:46;18.20;1.00
2945;DHT22;1482;51.398;7.128;2022-08-21T02:02:11;18.10;1.00
2945;DHT22;1482;51.398;7.128;2022-08-21T02:04:37;18.10;1.00
2945;DHT22;1482;51.398;7.128;2022-08-21T02:07:02;18.10;1.00
2945;DHT22;1482;51.398;7.128;2022-08-21T02:09:29;18.10;1.00
2945;DHT22;1482;51.398;7.128;2022-08-21T02:11:54;18.00;1.00
2945;DHT22;1482;51.398;7.128;2022-08-21T02:14:20;18.00;1.00
2945;DHT22;1482;51.398;7.128;2022-08-21T02:16:46;18.00;1.00
2945;DHT22;1482;51.398;7.128;2022-08-21T02:19:13;17.90;1.00
2945;DHT22;1482;51.398;7.128;2022-08-21T02:21:39;17.90;1.00
2945;DHT22;1482;51.398;7.128;2022-08-21T02:24:05;17.80;1.00
2945;DHT22;1482;51.398;7.128;2022-08-21T02:26:31;17.80;1.00
2945;DHT22;1482;51.398;7.128;2022-08-21T02:28:57;17.80;1.00
2945;DHT22;1482;51.398;7.128;2022-08-21T02:31:23;17.80;1.00
2945;DHT22;1482;51.398;7.128;2022-08-21T02:33:50;17.70;1.00
2945;DHT22;1482;51.398;7.128;2022-08-21T02:36:16;17.70;1.00
2945;DHT22;1482;51.398;7.128;2022-08-21T02:38:42;17.70;1.00
2945;DHT22;1482;51.398;7.128;2022-08-21T02:41:14;17.60;1.00
2945;DHT22;1482;51.398;7.128;2022-08-21T02:43:40;17.60;1.00
2945;DHT22;1482;51.398;7.128;2022-08-21T02:46:08;17.60;1.00
2945;DHT22;1482;51.398;7.128;2022-08-21T02:48:35;17.60;1.00
2945;DHT22;1482;51.398;7.128;2022-08-21T02:51:09;17.50;1.00
2945;DHT22;1482;51.398;7.128;2022-08-21T02:53:36;17.50;1.00
2945;DHT22;1482;51.398;7.128;2022-08-21T02:56:05;17.40;1.00
2945;DHT22;1482;51.398;7.128;2022-08-21T02:58:35;17.40;1.00
2945;DHT22;1482;51.398;7.128;2022-08-21T03:01:03;17.40;1.00
2945;DHT22;1482;51.398;7.128;2022-08-21T03:03:29;17.40;1.00
2945;DHT22;1482;51.398;7.128;2022-08-21T03:05:55;17.30;1.00
2945;DHT22;1482;51.398;7.128;2022-08-21T03:08:21;17.30;1.00
2945;DHT22;1482;51.398;7.128;2022-08-21T03:10:49;17.30;1.00
2945;DHT22;1482;51.398;7.128;2022-08-21T03:13:16;17.30;1.00
2945;DHT22;1482;51.398;7.128;2022-08-21T03:15:43;17.30;1.00
2945;DHT22;1482;51.398;7.128;2022-08-21T03:18:10;17.30;1.00
2945;DHT22;1482;51.398;7.128;2022-08-21T03:20:37;17.30;1.00
2945;DHT22;1482;51.398;7.128;2022-08-21T03:23:03;17.30;1.00
2945;DHT22;1482;51.398;7.128;2022-08-21T03:25:30;17.40;1.00
2945;DHT22;1482;51.398;7.128;2022-08-21T03:27:59;17.40;1.00
2945;DHT22;1482;51.398;7.128;2022-08-21T03:30:25;17.40;1.00
2945;DHT22;1482;51.398;7.128;2022-08-21T03:32:51;17.30;1.00
2945;DHT22;1482;51.398;7.128;2022-08-21T03:35:18;17.30;1.00
2945;DHT22;1482;51.398;7.128;2022-08-21T03:37:44;17.30;1.00
2945;DHT22;1482;51.398;7.128;2022-08-21T03:40:12;17.30;1.00
2945;DHT22;1482;51.398;7.128;2022-08-21T03:42:38;17.20;1.00
2945;DHT22;1482;51.398;7.128;2022-08-21T03:45:05;17.20;1.00
2945;DHT22;1482;51.398;7.128;2022-08-21T03:47:31;17.20;1.00
2945;DHT22;1482;51.398;7.128;2022-08-21T03:49:56;17.20;1.00
2945;DHT22;1482;51.398;7.128;2022-08-21T03:52:22;17.20;1.00
2945;DHT22;1482;51.398;7.128;2022-08-21T03:54:48;17.20;1.00
2945;DHT22;1482;51.398;7.128;2022-08-21T03:57:15;17.30;1.00
2945;DHT22;1482;51.398;7.128;2022-08-21T03:59:41;17.20;1.00
2945;DHT22;1482;51.398;7.128;2022-08-21T04:02:07;17.30;1.00
2945;DHT22;1482;51.398;7.128;2022-08-21T04:04:33;17.30;1.00
2945;DHT22;1482;51.398;7.128;2022-08-21T04:06:59;17.30;1.00
2945;DHT22;1482;51.398;7.128;2022-08-21T04:09:25;17.30;1.00
2945;DHT22;1482;51.398;7.128;2022-08-21T04:11:51;17.30;1.00
2945;DHT22;1482;51.398;7.128;2022-08-21T04:14:17;17.30;1.00
2945;DHT22;1482;51.398;7.128;2022-08-21T04:16:43;17.30;1.00
2945;DHT22;1482;51.398;7.128;2022-08-21T04:19:10;17.30;1.00
2945;DHT22;1482;51.398;7.128;2022-08-21T04:21:37;17.20;1.00
2945;DHT22;1482;51.398;7.128;2022-08-21T04:24:06;17.20;1.00
2945;DHT22;1482;51.398;7.128;2022-08-21T04:26:33;17.20;1.00
2945;DHT22;1482;51.398;7.128;2022-08-21T04:29:00;17.20;1.00
2945;DHT22;1482;51.398;7.128;2022-08-21T04:31:27;17.10;1.00
2945;DHT22;1482;51.398;7.128;2022-08-21T04:33:54;17.10;1.00
2945;DHT22;1482;51.398;7.128;2022-08-21T04:36:20;17.10;1.00
2945;DHT22;1482;51.398;7.128;2022-08-21T04:38:45;17.10;1.00
2945;DHT22;1482;51.398;7.128;2022-08-21T04:41:11;17.10;1.00
2945;DHT22;1482;51.398;7.128;2022-08-21T04:43:38;17.10;1.00
2945;DHT22;1482;51.398;7.128;2022-08-21T04:46:04;17.10;1.00
2945;DHT22;1482;51.398;7.128;2022-08-21T04:48:29;17.30;1.00
2945;DHT22;1482;51.398;7.128;2022-08-21T04:51:00;17.60;1.00
2945;DHT22;1482;51.398;7.128;2022-08-21T04:53:44;18.10;1.00
2945;DHT22;1482;51.398;7.128;2022-08-21T04:56:15;18.50;1.00
2945;DHT22;1482;51.398;7.128;2022-08-21T04:58:43;18.80;1.00
2945;DHT22;1482;51.398;7.128;2022-08-21T05:01:15;19.30;1.00
2945;DHT22;1482;51.398;7.128;2022-08-21T05:03:43;19.70;1.00
2945;DHT22;1482;51.398;7.128;2022-08-21T05:06:11;20.00;1.00
2945;DHT22;1482;51.398;7.128;2022-08-21T05:08:38;20.20;1.00
2945;DHT22;1482;51.398;7.128;2022-08-21T05:11:05;20.50;1.00
2945;DHT22;1482;51.398;7.128;2022-08-21T05:13:32;20.80;1.00
2945;DHT22;1482;51.398;7.128;2022-08-21T05:15:57;20.90;1.00
2945;DHT22;1482;51.398;7.128;2022-08-21T05:18:24;21.00;1.00
2945;DHT22;1482;51.398;7.128;2022-08-21T05:20:50;20.80;1.00
2945;DHT22;1482;51.398;7.128;2022-08-21T05:23:16;20.50;1.00
2945;DHT22;1482;51.398;7.128;2022-08-21T05:25:42;20.50;1.00
2945;DHT22;1482;51.398;7.128;2022-08-21T05:28:09;20.20;1.00
2945;DHT22;1482;51.398;7.128;2022-08-21T05:30:36;20.20;1.00
2945;DHT22;1482;51.398;7.128;2022-08-21T05:33:04;20.20;1.00
2945;DHT22;1482;51.398;7.128;2022-08-21T05:35:31;20.20;1.00
2945;DHT22;1482;51.398;7.128;2022-08-21T05:37:58;20.40;1.00
2945;DHT22;1482;51.398;7.128;2022-08-21T05:40:24;20.50;1.00
2945;DHT22;1482;51.398;7.128;2022-08-21T05:42:50;20.50;1.00
2945;DHT22;1482;51.398;7.128;2022-08-21T05:45:16;20.60;1.00
2945;DHT22;1482;51.398;7.128;2022-08-21T05:47:42;20.60;1.00
2945;DHT22;1482;51.398;7.128;2022-08-21T05:50:07;20.60;1.00
2945;DHT22;1482;51.398;7.128;2022-08-21T05:52:33;20.70;1.00
2945;DHT22;1482;51.398;7.128;2022-08-21T05:54:59;20.80;1.00
2945;DHT22;1482;51.398;7.128;2022-08-21T05:57:24;20.90;1.00
2945;DHT22;1482;51.398;7.128;2022-08-21T05:59:50;21.00;1.00
2945;DHT22;1482;51.398;7.128;2022-08-21T06:02:20;21.10;1.00
2945;DHT22;1482;51.398;7.128;2022-08-21T06:04:46;21.10;1.00
2945;DHT22;1482;51.398;7.128;2022-08-21T06:07:12;21.10;1.00
2945;DHT22;1482;51.398;7.128;2022-08-21T06:09:37;21.10;1.00
2945;DHT22;1482;51.398;7.128;2022-08-21T06:12:08;21.30;1.00
2945;DHT22;1482;51.398;7.128;2022-08-21T06:14:36;21.40;1.00
2945;DHT22;1482;51.398;7.128;2022-08-21T06:17:07;21.50;1.00
2945;DHT22;1482;51.398;7.128;2022-08-21T06:19:35;21.50;1.00
2945;DHT22;1482;51.398;7.128;2022-08-21T06:22:00;21.70;1.00
2945;DHT22;1482;51.398;7.128;2022-08-21T06:24:26;21.60;1.00
2945;DHT22;1482;51.398;7.128;2022-08-21T06:26:52;21.70;1.00
2945;DHT22;1482;51.398;7.128;2022-08-21T06:29:18;21.90;1.00
2945;DHT22;1482;51.398;7.128;2022-08-21T06:31:46;22.10;1.00
2945;DHT22;1482;51.398;7.128;2022-08-21T06:34:12;22.30;1.00
2945;DHT22;1482;51.398;7.128;2022-08-21T06:36:38;22.50;1.00
2945;DHT22;1482;51.398;7.128;2022-08-21T06:39:04;22.70;1.00
2945;DHT22;1482;51.398;7.128;2022-08-21T06:41:29;22.80;1.00
2945;DHT22;1482;51.398;7.128;2022-08-21T06:43:56;23.00;1.00
2945;DHT22;1482;51.398;7.128;2022-08-21T06:46:23;23.10;1.00
2945;DHT22;1482;51.398;7.128;2022-08-21T06:48:49;23.30;1.00
2945;DHT22;1482;51.398;7.128;2022-08-21T06:51:15;23.60;1.00
2945;DHT22;1482;51.398;7.128;2022-08-21T06:53:40;23.80;1.00
2945;DHT22;1482;51.398;7.128;2022-08-21T06:56:06;24.00;1.00
2945;DHT22;1482;51.398;7.128;2022-08-21T06:58:31;24.20;1.00
2945;DHT22;1482;51.398;7.128;2022-08-21T07:00:57;24.20;1.00
2945;DHT22;1482;51.398;7.128;2022-08-21T07:03:29;24.30;1.00
2945;DHT22;1482;51.398;7.128;2022-08-21T07:05:56;24.30;1.00
2945;DHT22;1482;51.398;7.128;2022-08-21T07:08:24;24.40;1.00
2945;DHT22;1482;51.398;7.128;2022-08-21T07:10:50;24.40;1.00
2945;DHT22;1482;51.398;7.128;2022-08-21T07:13:16;24.40;1.00
2945;DHT22;1482;51.398;7.128;2022-08-21T07:15:42;24.50;1.00
2945;DHT22;1482;51.398;7.128;2022-08-21T07:18:08;24.70;1.00
2945;DHT22;1482;51.398;7.128;2022-08-21T07:20:34;24.80;1.00
2945;DHT22;1482;51.398;7.128;2022-08-21T07:23:03;24.90;1.00
2945;DHT22;1482;51.398;7.128;2022-08-21T07:25:29;25.00;1.00
2945;DHT22;1482;51.398;7.128;2022-08-21T07:27:55;25.00;1.00
2945;DHT22;1482;51.398;7.128;2022-08-21T07:30:21;25.10;1.00
2945;DHT22;1482;51.398;7.128;2022-08-21T07:32:47;25.30;1.00
2945;DHT22;1482;51.398;7.128;2022-08-21T07:35:15;25.30;1.00
2945;DHT22;1482;51.398;7.128;2022-08-21T07:37:40;25.40;1.00
2945;DHT22;1482;51.398;7.128;2022-08-21T07:40:07;25.50;1.00
2945;DHT22;1482;51.398;7.128;2022-08-21T07:42:32;25.70;1.00
2945;DHT22;1482;51.398;7.128;2022-08-21T07:44:58;25.80;1.00
2945;DHT22;1482;51.398;7.128;2022-08-21T07:47:24;25.60;1.00
2945;DHT22;1482;51.398;7.128;2022-08-21T07:49:49;25.80;1.00
2945;DHT22;1482;51.398;7.128;2022-08-21T07:52:15;25.80;1.00
2945;DHT22;1482;51.398;7.128;2022-08-21T07:54:41;25.70;1.00
2945;DHT22;1482;51.398;7.128;2022-08-21T07:57:06;25.70;1.00
2945;DHT22;1482;51.398;7.128;2022-08-21T07:59:32;25.90;1.00
2945;DHT22;1482;51.398;7.128;2022-08-21T08:01:57;25.90;1.00
2945;DHT22;1482;51.398;7.128;2022-08-21T08:04:23;25.80;1.00
2945;DHT22;1482;51.398;7.128;2022-08-21T08:06:49;25.80;1.00
2945;DHT22;1482;51.398;7.128;2022-08-21T08:09:15;25.90;1.00
2945;DHT22;1482;51.398;7.128;2022-08-21T08:11:42;26.00;1.00
2945;DHT22;1482;51.398;7.128;2022-08-21T08:14:11;26.20;1.00
2945;DHT22;1482;51.398;7.128;2022-08-21T08:16:36;26.40;1.00
2945;DHT22;1482;51.398;7.128;2022-08-21T08:19:02;26.50;1.00
2945;DHT22;1482;51.398;7.128;2022-08-21T08:21:28;26.70;1.00
2945;DHT22;1482;51.398;7.128;2022-08-21T08:23:54;26.80;1.00
2945;DHT22;1482;51.398;7.128;2022-08-21T08:26:20;26.90;1.00
2945;DHT22;1482;51.398;7.128;2022-08-21T08:28:45;27.10;1.00
2945;DHT22;1482;51.398;7.128;2022-08-21T08:31:13;26.90;1.00
2945;DHT22;1482;51.398;7.128;2022-08-21T08:33:39;26.90;1.00
2945;DHT22;1482;51.398;7.128;2022-08-21T08:36:05;26.90;1.00
2945;DHT22;1482;51.398;7.128;2022-08-21T08:38:31;26.90;1.00
2945;DHT22;1482;51.398;7.128;2022-08-21T08:41:01;26.80;1.00
2945;DHT22;1482;51.398;7.128;2022-08-21T08:43:28;26.70;1.00
2945;DHT22;1482;51.398;7.128;2022-08-21T08:45:56;26.70;1.00
2945;DHT22;1482;51.398;7.128;2022-08-21T08:48:47;26.80;1.00
2945;DHT22;1482;51.398;7.128;2022-08-21T08:51:25;26.90;1.00
2945;DHT22;1482;51.398;7.128;2022-08-21T08:53:57;26.90;1.00
2945;DHT22;1482;51.398;7.128;2022-08-21T08:56:29;27.00;1.00
2945;DHT22;1482;51.398;7.128;2022-08-21T08:58:59;27.20;1.00
2945;DHT22;1482;51.398;7.128;2022-08-21T09:01:26;27.10;1.00
2945;DHT22;1482;51.398;7.128;2022-08-21T09:03:51;27.00;1.00
2945;DHT22;1482;51.398;7.128;2022-08-21T09:06:33;27.10;1.00
2945;DHT22;1482;51.398;7.128;2022-08-21T09:09:24;27.10;1.00
2945;DHT22;1482;51.398;7.128;2022-08-21T09:12:06;27.00;1.00
2945;DHT22;1482;51.398;7.128;2022-08-21T09:20:14;26.90;1.00
2945;DHT22;1482;51.398;7.128;2022-08-21T09:28:19;26.90;1.00
2945;DHT22;1482;51.398;7.128;2022-08-21T09:30:45;26.60;1.00
2945;DHT22;1482;51.398;7.128;2022-08-21T09:33:12;26.50;1.00
2945;DHT22;1482;51.398;7.128;2022-08-21T09:35:50;26.40;1.00
2945;DHT22;1482;51.398;7.128;2022-08-21T09:38:29;26.50;1.00
2945;DHT22;1482;51.398;7.128;2022-08-21T09:40:58;26.50;1.00
2945;DHT22;1482;51.398;7.128;2022-08-21T09:43:25;26.10;1.00
2945;DHT22;1482;51.398;7.128;2022-08-21T09:46:21;25.90;1.00
2945;DHT22;1482;51.398;7.128;2022-08-21T09:48:51;25.80;1.00
2945;DHT22;1482;51.398;7.128;2022-08-21T09:51:20;26.10;1.00
2945;DHT22;1482;51.398;7.128;2022-08-21T09:53:54;26.20;1.00
2945;DHT22;1482;51.398;7.128;2022-08-21T09:56:27;26.30;1.00
2945;DHT22;1482;51.398;7.128;2022-08-21T10:01:45;26.70;1.00
2945;DHT22;1482;51.398;7.128;2022-08-21T10:04:11;27.00;1.00
2945;DHT22;1482;51.398;7.128;2022-08-21T10:06:37;27.20;1.00
2945;DHT22;1482;51.398;7.128;2022-08-21T10:11:33;27.40;1.00
2945;DHT22;1482;51.398;7.128;2022-08-21T10:17:17;27.80;1.00
2945;DHT22;1482;51.398;7.128;2022-08-21T10:22:32;28.00;1.00
2945;DHT22;1482;51.398;7.128;2022-08-21T10:28:04;28.10;1.00
2945;DHT22;1482;51.398;7.128;2022-08-21T10:30:41;28.20;1.00
2945;DHT22;1482;51.398;7.128;2022-08-21T10:36:34;28.40;1.00
2945;DHT22;1482;51.398;7.128;2022-08-21T10:39:01;28.60;1.00
2945;DHT22;1482;51.398;7.128;2022-08-21T10:42:00;28.70;1.00
2945;DHT22;1482;51.398;7.128;2022-08-21T10:50:23;29.40;1.00
2945;DHT22;1482;51.398;7.128;2022-08-21T10:55:32;29.60;1.00
2945;DHT22;1482;51.398;7.128;2022-08-21T10:58:04;29.60;1.00
2945;DHT22;1482;51.398;7.128;2022-08-21T11:00:37;29.40;1.00
2945;DHT22;1482;51.398;7.128;2022-08-21T11:03:18;29.40;1.00
2945;DHT22;1482;51.398;7.128;2022-08-21T11:05:55;29.30;1.00
2945;DHT22;1482;51.398;7.128;2022-08-21T11:08:28;29.10;1.00
2945;DHT22;1482;51.398;7.128;2022-08-21T11:11:05;28.90;1.00
2945;DHT22;1482;51.398;7.128;2022-08-21T11:18:53;28.90;1.00
2945;DHT22;1482;51.398;7.128;2022-08-21T11:21:42;29.00;1.00
2945;DHT22;1482;51.398;7.128;2022-08-21T11:24:24;29.00;1.00
2945;DHT22;1482;51.398;7.128;2022-08-21T11:27:18;29.10;1.00
2945;DHT22;1482;51.398;7.128;2022-08-21T11:29:49;29.20;1.00
2945;DHT22;1482;51.398;7.128;2022-08-21T11:33:00;29.30;1.00
2945;DHT22;1482;51.398;7.128;2022-08-21T11:35:33;29.20;1.00
2945;DHT22;1482;51.398;7.128;2022-08-21T11:38:21;29.10;1.00
2945;DHT22;1482;51.398;7.128;2022-08-21T11:41:02;29.00;1.00
2945;DHT22;1482;51.398;7.128;2022-08-21T11:43:42;28.70;1.00
2945;DHT22;1482;51.398;7.128;2022-08-21T12:00:20;28.70;1.00
2945;DHT22;1482;51.398;7.128;2022-08-21T12:02:57;28.90;1.00
2945;DHT22;1482;51.398;7.128;2022-08-21T12:05:34;29.10;1.00
2945;DHT22;1482;51.398;7.128;2022-08-21T12:08:06;29.20;1.00
2945;DHT22;1482;51.398;7.128;2022-08-21T12:10:39;29.30;1.00
2945;DHT22;1482;51.398;7.128;2022-08-21T12:13:28;29.40;1.00
2945;DHT22;1482;51.398;7.128;2022-08-21T12:15:52;29.70;1.00
2945;DHT22;1482;51.398;7.128;2022-08-21T12:18:35;29.80;1.00
2945;DHT22;1482;51.398;7.128;2022-08-21T12:21:23;29.90;1.00
2945;DHT22;1482;51.398;7.128;2022-08-21T12:24:17;29.70;1.00
2945;DHT22;1482;51.398;7.128;2022-08-21T12:26:58;29.60;1.00
2945;DHT22;1482;51.398;7.128;2022-08-21T12:29:29;29.50;1.00
2945;DHT22;1482;51.398;7.128;2022-08-21T12:34:40;29.50;1.00
2945;DHT22;1482;51.398;7.128;2022-08-21T12:37:20;29.60;1.00
2945;DHT22;1482;51.398;7.128;2022-08-21T12:39:49;29.60;1.00
2945;DHT22;1482;51.398;7.128;2022-08-21T12:42:20;29.70;1.00
2945;DHT22;1482;51.398;7.128;2022-08-21T12:44:54;29.90;1.00
2945;DHT22;1482;51.398;7.128;2022-08-21T12:50:19;30.30;1.00
2945;DHT22;1482;51.398;7.128;2022-08-21T12:53:06;30.40;1.00
2945;DHT22;1482;51.398;7.128;2022-08-21T12:55:34;30.50;1.00
2945;DHT22;1482;51.398;7.128;2022-08-21T12:57:59;30.60;1.00
2945;DHT22;1482;51.398;7.128;2022-08-21T13:00:28;30.60;1.00
2945;DHT22;1482;51.398;7.128;2022-08-21T13:02:55;30.60;1.00
2945;DHT22;1482;51.398;7.128;2022-08-21T13:05:33;30.70;1.00
2945;DHT22;1482;51.398;7.128;2022-08-21T13:08:03;30.50;1.00
2945;DHT22;1482;51.398;7.128;2022-08-21T13:10:32;30.50;1.00
2945;DHT22;1482;51.398;7.128;2022-08-21T13:13:00;30.70;1.00
2945;DHT22;1482;51.398;7.128;2022-08-21T13:15:31;30.60;1.00
2945;DHT22;1482;51.398;7.128;2022-08-21T13:17:57;30.60;1.00
2945;DHT22;1482;51.398;7.128;2022-08-21T13:20:45;30.60;1.00
2945;DHT22;1482;51.398;7.128;2022-08-21T13:23:23;30.60;1.00
2945;DHT22;1482;51.398;7.128;2022-08-21T13:25:49;30.60;1.00
2945;DHT22;1482;51.398;7.128;2022-08-21T13:28:15;30.70;1.00
2945;DHT22;1482;51.398;7.128;2022-08-21T13:30:52;30.60;1.00
2945;DHT22;1482;51.398;7.128;2022-08-21T13:33:24;30.50;1.00
2945;DHT22;1482;51.398;7.128;2022-08-21T13:36:11;30.40;1.00
2945;DHT22;1482;51.398;7.128;2022-08-21T13:38:40;30.50;1.00
2945;DHT22;1482;51.398;7.128;2022-08-21T13:41:13;30.50;1.00
2945;DHT22;1482;51.398;7.128;2022-08-21T13:43:45;30.50;1.00
2945;DHT22;1482;51.398;7.128;2022-08-21T13:46:13;30.40;1.00
2945;DHT22;1482;51.398;7.128;2022-08-21T13:48:41;30.50;1.00
2945;DHT22;1482;51.398;7.128;2022-08-21T13:51:08;30.40;1.00
2945;DHT22;1482;51.398;7.128;2022-08-21T13:53:46;30.40;1.00
2945;DHT22;1482;51.398;7.128;2022-08-21T13:56:43;30.40;1.00
2945;DHT22;1482;51.398;7.128;2022-08-21T13:59:09;30.40;1.00
2945;DHT22;1482;51.398;7.128;2022-08-21T14:01:51;30.30;1.00
2945;DHT22;1482;51.398;7.128;2022-08-21T14:04:26;30.30;1.00
2945;DHT22;1482;51.398;7.128;2022-08-21T14:06:52;30.40;1.00
2945;DHT22;1482;51.398;7.128;2022-08-21T14:09:34;30.30;1.00
2945;DHT22;1482;51.398;7.128;2022-08-21T14:12:10;30.30;1.00
2945;DHT22;1482;51.398;7.128;2022-08-21T14:14:38;30.20;1.00
2945;DHT22;1482;51.398;7.128;2022-08-21T14:17:08;30.30;1.00
2945;DHT22;1482;51.398;7.128;2022-08-21T14:19:43;30.10;1.00
2945;DHT22;1482;51.398;7.128;2022-08-21T14:22:47;29.90;1.00
2945;DHT22;1482;51.398;7.128;2022-08-21T14:27:55;29.30;1.00
2945;DHT22;1482;51.398;7.128;2022-08-21T14:30:42;29.20;1.00
2945;DHT22;1482;51.398;7.128;2022-08-21T14:33:13;29.00;1.00
2945;DHT22;1482;51.398;7.128;2022-08-21T14:35:42;28.90;1.00
2945;DHT22;1482;51.398;7.128;2022-08-21T14:38:16;28.70;1.00
2945;DHT22;1482;51.398;7.128;2022-08-21T14:40:43;28.60;1.00
2945;DHT22;1482;51.398;7.128;2022-08-21T14:43:10;28.60;1.00
2945;DHT22;1482;51.398;7.128;2022-08-21T14:45:35;28.40;1.00
2945;DHT22;1482;51.398;7.128;2022-08-21T14:48:04;28.30;1.00
2945;DHT22;1482;51.398;7.128;2022-08-21T14:50:29;28.20;1.00
2945;DHT22;1482;51.398;7.128;2022-08-21T14:52:55;28.10;1.00
2945;DHT22;1482;51.398;7.128;2022-08-21T14:55:21;28.10;1.00
2945;DHT22;1482;51.398;7.128;2022-08-21T14:57:48;28.00;1.00
2945;DHT22;1482;51.398;7.128;2022-08-21T15:00:18;27.90;1.00
2945;DHT22;1482;51.398;7.128;2022-08-21T15:02:45;27.80;1.00
2945;DHT22;1482;51.398;7.128;2022-08-21T15:05:11;27.80;1.00
2945;DHT22;1482;51.398;7.128;2022-08-21T15:07:37;27.90;1.00
2945;DHT22;1482;51.398;7.128;2022-08-21T15:10:04;28.00;1.00
2945;DHT22;1482;51.398;7.128;2022-08-21T15:12:30;28.10;1.00
2945;DHT22;1482;51.398;7.128;2022-08-21T15:14:55;28.10;1.00
2945;DHT22;1482;51.398;7.128;2022-08-21T15:17:21;28.20;1.00
2945;DHT22;1482;51.398;7.128;2022-08-21T15:19:47;28.20;1.00
2945;DHT22;1482;51.398;7.128;2022-08-21T15:22:12;28.30;1.00
2945;DHT22;1482;51.398;7.128;2022-08-21T15:24:38;28.30;1.00
2945;DHT22;1482;51.398;7.128;2022-08-21T15:27:06;28.20;1.00
2945;DHT22;1482;51.398;7.128;2022-08-21T15:29:33;28.20;1.00
2945;DHT22;1482;51.398;7.128;2022-08-21T15:32:17;28.20;1.00
2945;DHT22;1482;51.398;7.128;2022-08-21T15:34:43;28.20;1.00
2945;DHT22;1482;51.398;7.128;2022-08-21T15:37:08;28.10;1.00
2945;DHT22;1482;51.398;7.128;2022-08-21T15:39:35;28.20;1.00
2945;DHT22;1482;51.398;7.128;2022-08-21T15:42:01;28.20;1.00
2945;DHT22;1482;51.398;7.128;2022-08-21T15:44:28;28.20;1.00
2945;DHT22;1482;51.398;7.128;2022-08-21T15:46:54;28.10;1.00
2945;DHT22;1482;51.398;7.128;2022-08-21T15:49:20;28.10;1.00
2945;DHT22;1482;51.398;7.128;2022-08-21T15:51:46;28.10;1.00
2945;DHT22;1482;51.398;7.128;2022-08-21T15:54:11;28.10;1.00
2945;DHT22;1482;51.398;7.128;2022-08-21T15:56:39;28.00;1.00
2945;DHT22;1482;51.398;7.128;2022-08-21T15:59:09;28.00;1.00
2945;DHT22;1482;51.398;7.128;2022-08-21T16:01:38;28.00;1.00
2945;DHT22;1482;51.398;7.128;2022-08-21T16:04:04;28.00;1.00
2945;DHT22;1482;51.398;7.128;2022-08-21T16:06:30;28.00;1.00
2945;DHT22;1482;51.398;7.128;2022-08-21T16:08:56;28.00;1.00
2945;DHT22;1482;51.398;7.128;2022-08-21T16:11:21;28.00;1.00
2945;DHT22;1482;51.398;7.128;2022-08-21T16:13:47;28.00;1.00
2945;DHT22;1482;51.398;7.128;2022-08-21T16:16:18;28.00;1.00
2945;DHT22;1482;51.398;7.128;2022-08-21T16:18:44;27.90;1.00
2945;DHT22;1482;51.398;7.128;2022-08-21T16:21:10;27.90;1.00
2945;DHT22;1482;51.398;7.128;2022-08-21T16:23:36;27.80;1.00
2945;DHT22;1482;51.398;7.128;2022-08-21T16:26:04;27.60;1.00
2945;DHT22;1482;51.398;7.128;2022-08-21T16:28:31;27.50;1.00
2945;DHT22;1482;51.398;7.128;2022-08-21T16:30:58;27.40;1.00
2945;DHT22;1482;51.398;7.128;2022-08-21T16:33:37;27.40;1.00
2945;DHT22;1482;51.398;7.128;2022-08-21T16:36:04;27.30;1.00
2945;DHT22;1482;51.398;7.128;2022-08-21T16:38:30;27.20;1.00
2945;DHT22;1482;51.398;7.128;2022-08-21T16:40:57;27.00;1.00
2945;DHT22;1482;51.398;7.128;2022-08-21T16:43:25;26.90;1.00
2945;DHT22;1482;51.398;7.128;2022-08-21T16:45:53;26.90;1.00
2945;DHT22;1482;51.398;7.128;2022-08-21T16:48:19;26.80;1.00
2945;DHT22;1482;51.398;7.128;2022-08-21T16:50:45;26.70;1.00
2945;DHT22;1482;51.398;7.128;2022-08-21T16:53:11;26.60;1.00
2945;DHT22;1482;51.398;7.128;2022-08-21T16:55:37;26.50;1.00
2945;DHT22;1482;51.398;7.128;2022-08-21T16:58:15;26.50;1.00
2945;DHT22;1482;51.398;7.128;2022-08-21T17:00:41;26.40;1.00
2945;DHT22;1482;51.398;7.128;2022-08-21T17:03:12;26.30;1.00
2945;DHT22;1482;51.398;7.128;2022-08-21T17:05:39;26.20;1.00
2945;DHT22;1482;51.398;7.128;2022-08-21T17:08:05;26.20;1.00
2945;DHT22;1482;51.398;7.128;2022-08-21T17:10:33;26.10;1.00
2945;DHT22;1482;51.398;7.128;2022-08-21T17:12:59;26.00;1.00
2945;DHT22;1482;51.398;7.128;2022-08-21T17:15:27;25.90;1.00
2945;DHT22;1482;51.398;7.128;2022-08-21T17:17:54;25.80;1.00
2945;DHT22;1482;51.398;7.128;2022-08-21T17:20:21;25.70;1.00
2945;DHT22;1482;51.398;7.128;2022-08-21T17:22:47;25.70;1.00
2945;DHT22;1482;51.398;7.128;2022-08-21T17:25:13;25.60;1.00
2945;DHT22;1482;51.398;7.128;2022-08-21T17:27:39;25.60;1.00
2945;DHT22;1482;51.398;7.128;2022-08-21T17:30:07;25.60;1.00
2945;DHT22;1482;51.398;7.128;2022-08-21T17:32:32;25.50;1.00
2945;DHT22;1482;51.398;7.128;2022-08-21T17:34:58;25.40;1.00